createdAt,value
2023-02-09T06:59:01.727Z,1814.5
2023-02-09T07:00:01.114Z,1913.3
2023-02-09T07:01:03.005Z,2038.0
2023-02-09T07:02:01.150Z,2143.5
2023-02-09T07:03:01.225Z,2249.1
2023-02-09T07:04:01.310Z,2370.1
2023-02-09T07:05:01.105Z,2491.1
2023-02-09T07:06:01.118Z,2651.8
2023-02-09T07:07:01.113Z,2812.5
2023-02-09T07:08:01.138Z,2973.3
2023-02-09T07:09:02.206Z,3187.6
2023-02-09T07:10:01.352Z,3401.9
2023-02-09T07:11:01.996Z,3660.7
2023-02-09T07:12:01.136Z,3919.5
2023-02-09T07:13:01.180Z,4178.3
2023-02-09T07:14:01.557Z,4480.1
2023-02-09T07:15:01.172Z,4781.8
2023-02-09T07:16:01.453Z,5130.0
2023-02-09T07:17:01.116Z,5478.2
2023-02-09T07:18:01.148Z,5826.4
2023-02-09T07:19:01.322Z,6217.7
2023-02-09T07:20:01.365Z,6608.9
2023-02-09T07:21:01.129Z,7039.3
2023-02-09T07:22:01.117Z,7469.7
2023-02-09T07:23:01.593Z,7900.1
2023-02-09T07:24:01.318Z,8368.3
2023-02-09T07:25:01.117Z,8836.5
2023-02-09T07:26:02.147Z,9341.3
2023-02-09T07:27:01.114Z,9846.1
2023-02-09T07:28:01.308Z,10350.9
2023-02-09T07:29:06.317Z,10892.3
2023-02-09T07:30:01.478Z,11433.6
2023-02-09T07:31:03.372Z,12002.9
2023-02-09T07:32:01.160Z,12572.3
2023-02-09T07:33:01.893Z,13141.6
2023-02-09T07:34:01.592Z,13734.1
2023-02-09T07:35:01.110Z,14326.7
2023-02-09T07:36:01.118Z,14940.7
2023-02-09T07:37:01.124Z,15554.7
2023-02-09T07:38:01.139Z,16168.7
2023-02-09T07:39:01.358Z,16800.0
2023-02-09T07:40:01.113Z,17431.3
2023-02-09T07:41:02.211Z,18069.6
2023-02-09T07:42:01.112Z,18707.9
2023-02-09T07:43:01.158Z,19346.1
2023-02-09T07:44:01.601Z,19988.9
2023-02-09T07:45:01.113Z,20631.6
2023-02-09T07:46:01.197Z,21292.7
2023-02-09T07:47:01.419Z,21953.7
2023-02-09T07:48:01.138Z,22614.8
2023-02-09T07:49:01.595Z,23272.4
2023-02-09T07:51:01.799Z,24012.2
2023-02-09T07:52:01.102Z,24641.6
2023-02-09T07:53:01.138Z,25271.0
2023-02-09T07:54:01.096Z,26001.5
2023-02-09T07:55:01.304Z,26618.8
2023-02-09T07:56:01.114Z,27338.8
2023-02-09T07:57:01.118Z,27951.3
2023-02-09T07:58:01.102Z,28563.9
2023-02-09T07:59:02.131Z,29282.1
2023-02-09T08:00:02.993Z,29891.8
2023-02-09T08:01:01.718Z,30602.6
2023-02-09T08:02:01.185Z,31194.7
2023-02-09T08:03:01.159Z,31786.7
2023-02-09T08:04:01.391Z,32456.8
2023-02-09T08:05:01.954Z,33027.5
2023-02-09T08:06:01.967Z,33606.6
2023-02-09T08:07:01.366Z,34185.7
2023-02-09T08:08:01.138Z,34764.9
2023-02-09T08:09:01.346Z,35354.9
2023-02-09T08:10:01.307Z,35945.0
2023-02-09T08:11:02.304Z,36582.5
2023-02-09T08:12:01.135Z,37220.1
2023-02-09T08:13:01.133Z,37857.6
2023-02-09T08:14:01.108Z,38582.9
2023-02-09T08:15:01.309Z,39308.1
2023-02-09T08:16:01.411Z,40119.1
2023-02-09T08:17:01.102Z,40930.1
2023-02-09T08:18:02.242Z,41741.1
2023-02-09T08:19:01.132Z,42511.7
2023-02-09T08:20:06.875Z,43282.2
2023-02-09T08:21:01.111Z,44054.6
2023-02-09T08:22:01.101Z,44827.0
2023-02-09T08:23:02.229Z,45599.4
2023-02-09T08:24:02.131Z,46482.1
2023-02-09T08:25:02.422Z,47364.9
2023-02-09T08:26:01.984Z,48207.4
2023-02-09T08:27:01.108Z,49049.9
2023-02-09T08:28:01.168Z,49892.5
2023-02-09T08:29:01.110Z,50694.2
2023-02-09T08:30:02.413Z,51495.9
2023-02-09T08:31:07.168Z,52216.4
2023-02-09T08:32:01.200Z,52936.9
2023-02-09T08:33:01.098Z,53657.3
2023-02-09T08:34:01.113Z,54482.0
2023-02-09T08:35:03.069Z,55306.7
2023-02-09T08:36:01.112Z,56203.6
2023-02-09T08:37:01.107Z,57100.5
2023-02-09T08:38:01.152Z,57997.5
2023-02-09T08:39:02.128Z,58833.5
2023-02-09T08:40:01.608Z,59669.5
2023-02-09T08:41:02.070Z,60395.5
2023-02-09T08:42:01.104Z,61121.6
2023-02-09T08:43:01.166Z,61847.7
2023-02-09T08:44:01.118Z,62421.1
2023-02-09T08:45:02.103Z,62994.6
2023-02-09T08:46:01.204Z,63462.5
2023-02-09T08:47:01.283Z,63930.5
2023-02-09T08:48:01.143Z,64398.4
2023-02-09T08:49:01.138Z,64724.6
2023-02-09T08:50:01.318Z,65050.8
2023-02-09T08:51:01.781Z,65212.2
2023-02-09T08:52:01.105Z,65373.6
2023-02-09T08:53:01.152Z,65535.0
2023-02-09T09:00:01.386Z,65535.0
2023-02-09T09:40:02.239Z,65535.0
2023-02-09T09:45:02.029Z,65535.0
2023-02-09T10:00:04.053Z,65535.0
2023-02-09T10:30:02.256Z,65535.0
2023-02-09T10:45:17.313Z,65535.0
2023-02-09T11:10:02.131Z,65535.0
2023-02-09T11:15:31.685Z,65535.0
2023-02-09T11:40:02.087Z,65535.0
2023-02-09T11:45:03.284Z,65535.0
2023-02-09T11:52:01.080Z,65051.1
2023-02-09T11:53:01.144Z,64636.3
2023-02-09T11:54:01.357Z,64692.3
2023-02-09T11:55:02.421Z,64688.5
2023-02-09T11:56:01.110Z,64684.6
2023-02-09T12:00:04.999Z,64684.6
2023-02-09T12:07:06.425Z,65104.0
2023-02-09T12:08:01.080Z,65523.4
2023-02-09T12:09:01.346Z,65527.3
2023-02-09T12:10:01.103Z,65531.1
2023-02-09T12:11:01.118Z,65535.0
2023-02-09T12:12:01.573Z,65256.7
2023-02-09T12:13:01.118Z,64978.5
2023-02-09T12:14:01.346Z,64193.3
2023-02-09T12:15:01.967Z,63408.1
2023-02-09T12:16:01.170Z,62622.9
2023-02-09T12:17:01.801Z,60657.3
2023-02-09T12:18:01.104Z,58691.8
2023-02-09T12:19:01.089Z,56484.1
2023-02-09T12:20:01.411Z,54276.5
2023-02-09T12:21:01.365Z,52068.8
2023-02-09T12:22:02.386Z,49687.0
2023-02-09T12:23:01.094Z,47305.2
2023-02-09T12:24:01.092Z,44866.5
2023-02-09T12:25:01.708Z,42427.9
2023-02-09T12:26:01.095Z,39989.2
2023-02-09T12:27:02.160Z,37805.9
2023-02-09T12:28:01.175Z,35622.7
2023-02-09T12:29:01.083Z,33964.5
2023-02-09T12:30:02.252Z,32306.3
2023-02-09T12:31:01.306Z,30648.1
2023-02-09T12:32:01.729Z,29944.2
2023-02-09T12:33:01.096Z,29240.3
2023-02-09T12:34:01.093Z,28921.9
2023-02-09T12:35:01.106Z,28603.5
2023-02-09T12:36:01.084Z,28285.1
2023-02-09T12:37:01.290Z,28122.4
2023-02-09T12:38:01.101Z,27959.7
2023-02-09T12:39:05.161Z,27898.7
2023-02-09T12:40:01.099Z,27837.8
2023-02-09T12:41:01.086Z,27776.9
2023-02-09T12:42:01.638Z,27941.1
2023-02-09T12:43:01.088Z,28105.4
2023-02-09T12:44:01.119Z,28039.1
2023-02-09T12:45:06.797Z,27972.7
2023-02-09T12:46:01.098Z,27906.4
2023-02-09T12:47:02.003Z,28276.9
2023-02-09T12:48:01.092Z,28647.3
2023-02-09T12:49:01.092Z,28828.1
2023-02-09T12:50:06.724Z,29008.9
2023-02-09T12:51:01.086Z,29189.7
2023-02-09T12:52:01.890Z,29076.2
2023-02-09T12:53:01.089Z,28962.7
2023-02-09T12:54:01.358Z,28869.4
2023-02-09T12:55:01.100Z,28776.1
2023-02-09T12:56:01.086Z,28682.9
2023-02-09T12:57:01.302Z,28665.7
2023-02-09T12:58:01.088Z,28648.5
2023-02-09T12:59:01.085Z,28577.6
2023-02-09T13:00:02.178Z,28506.7
2023-02-09T13:01:01.122Z,28435.9
2023-02-09T13:02:16.123Z,27702.4
2023-02-09T13:03:01.565Z,26968.9
2023-02-09T13:04:01.411Z,26350.9
2023-02-09T13:05:01.114Z,25732.9
2023-02-09T13:30:05.842Z,42582.0
2023-02-09T13:32:01.157Z,43448.3
2023-02-09T13:33:02.824Z,43881.5
2023-02-09T13:34:01.122Z,43730.2
2023-02-09T13:35:15.971Z,43629.3
2023-02-09T13:36:09.118Z,43557.3
2023-02-09T13:37:01.978Z,42656.8
2023-02-09T13:38:00.952Z,41956.3
2023-02-09T14:02:05.430Z,35997.7
2023-02-09T14:03:00.489Z,35899.0
2023-02-09T14:04:00.427Z,34738.8
2023-02-09T14:05:15.484Z,33965.3
2023-02-09T14:06:02.107Z,33412.9
2023-02-09T14:07:00.422Z,32415.8
2023-02-09T14:08:00.419Z,31640.2
2023-02-09T14:30:01.904Z,22864.0
2023-02-09T14:32:00.808Z,23639.0
2023-02-09T14:33:00.771Z,24026.5
2023-02-09T14:34:01.857Z,24085.4
2023-02-09T14:35:02.205Z,24124.7
2023-02-09T14:36:01.048Z,24152.7
2023-02-09T14:37:00.914Z,24443.1
2023-02-09T14:38:00.782Z,24669.0
2023-02-09T14:39:00.774Z,24868.6
2023-02-09T14:40:01.036Z,25031.9
2023-02-09T14:41:00.769Z,25168.0
2023-02-09T14:42:00.815Z,25402.6
2023-02-09T14:43:00.771Z,25603.7
2023-02-09T14:44:05.773Z,25643.6
2023-02-09T14:46:00.835Z,26088.7
2023-02-09T14:47:01.876Z,26265.5
2023-02-09T14:48:00.775Z,26442.3
2023-02-09T14:49:00.773Z,26306.7
2023-02-09T14:50:06.772Z,26171.2
2023-02-09T14:51:00.786Z,26035.7
2023-02-09T14:52:00.824Z,25797.4
2023-02-09T14:53:00.778Z,25559.1
2023-02-09T14:54:00.779Z,25184.6
2023-02-09T14:55:01.633Z,24810.1
2023-02-09T14:56:00.780Z,24435.5
2023-02-09T14:57:00.812Z,23919.5
2023-02-09T14:58:00.773Z,23403.4
2023-02-09T14:59:00.787Z,22860.3
2023-02-09T15:00:04.391Z,22317.1
2023-02-09T15:01:01.160Z,21774.0
2023-02-09T15:02:00.832Z,21012.5
2023-02-09T15:03:00.853Z,20251.1
2023-02-09T15:04:00.796Z,19937.5
2023-02-09T15:05:03.177Z,19624.0
2023-02-09T15:06:00.786Z,19310.5
2023-02-09T15:07:00.808Z,18909.2
2023-02-09T15:08:01.054Z,18507.9
2023-02-09T15:09:00.784Z,18251.3
2023-02-09T15:10:06.000Z,17994.7
2023-02-09T15:11:00.776Z,17738.1
2023-02-09T15:12:00.821Z,17615.8
2023-02-09T15:13:00.776Z,17493.5
2023-02-09T15:14:00.780Z,17327.1
2023-02-09T15:16:00.848Z,16994.3
2023-02-09T15:17:00.813Z,16878.1
2023-02-09T15:18:01.062Z,16762.0
2023-02-09T15:42:00.371Z,6653.3
2023-02-09T15:43:00.679Z,6410.5
2023-02-09T15:44:00.374Z,6332.0
2023-02-09T15:46:00.771Z,6242.3
2023-02-09T15:47:00.370Z,6151.8
2023-02-09T15:48:00.400Z,6081.3
2023-02-09T15:49:00.372Z,5940.4
2023-02-09T15:50:01.904Z,5825.1
2023-02-09T15:51:00.373Z,5729.0
2023-02-09T15:52:00.373Z,5580.0
2023-02-09T15:53:00.437Z,5452.3
2023-02-09T15:54:00.378Z,5362.8
2023-02-09T15:55:00.708Z,5160.9
2023-02-09T15:56:00.418Z,4958.9
2023-02-09T15:57:00.380Z,4815.3
2023-02-09T15:58:00.414Z,4671.7
2023-02-09T15:59:01.404Z,4466.1
2023-02-09T16:01:00.711Z,4054.7
2023-02-09T16:02:00.592Z,3874.3
2023-02-09T16:03:00.493Z,3693.8
2023-02-09T16:04:11.886Z,3509.7
2023-02-09T16:05:00.898Z,3325.7
2023-02-09T16:06:00.381Z,3141.6
2023-02-09T16:07:00.380Z,3007.5
2023-02-09T16:08:00.556Z,2873.5
2023-02-09T16:09:00.377Z,2685.2
2023-02-09T16:10:01.376Z,2496.9
2023-02-09T16:11:00.392Z,2308.7
2023-02-09T16:12:00.407Z,2132.7
2023-02-09T16:13:00.705Z,1956.7
2023-02-09T16:14:00.463Z,1831.8
2023-02-09T16:16:15.022Z,1582.1
2023-02-09T16:17:00.456Z,1451.9
2023-02-09T16:18:00.412Z,1321.8
2023-02-09T16:19:00.387Z,1242.2
2023-02-09T16:20:02.724Z,1162.6
2023-02-09T16:21:00.388Z,1083.0
2023-02-09T16:22:00.408Z,996.7
2023-02-09T16:23:06.254Z,910.3
2023-02-09T16:24:00.384Z,849.3
2023-02-09T16:25:01.668Z,788.3
2023-02-09T16:26:01.773Z,727.3
2023-02-09T16:27:00.450Z,685.1
2023-02-09T16:28:00.472Z,642.9
2023-02-09T16:29:00.670Z,584.5
2023-02-09T16:30:01.799Z,526.0
2023-02-09T16:31:00.707Z,467.5
2023-02-09T16:32:00.390Z,421.7
2023-02-09T16:33:00.422Z,375.9
2023-02-09T16:34:00.428Z,335.1
2023-02-09T16:35:14.843Z,294.3
2023-02-09T16:36:00.681Z,253.5
2023-02-09T16:37:00.410Z,226.1
2023-02-09T16:38:00.718Z,198.7
2023-02-09T16:39:00.396Z,178.8
2023-02-09T16:40:00.700Z,158.9
2023-02-09T16:41:00.400Z,138.9
2023-02-09T16:42:00.397Z,124.7
2023-02-09T16:43:00.434Z,110.5
2023-02-09T16:44:01.449Z,100.3
2023-02-09T16:46:03.527Z,79.7
2023-02-09T16:47:00.430Z,69.5
2023-02-09T16:48:00.429Z,59.3
2023-02-09T16:49:00.406Z,53.2
2023-02-09T16:50:00.880Z,47.1
2023-02-09T16:51:00.410Z,40.9
2023-02-09T16:52:01.501Z,36.5
2023-02-09T16:53:00.492Z,32.0
2023-02-09T16:54:00.410Z,27.6
2023-02-09T16:55:01.590Z,23.2
2023-02-09T16:56:00.407Z,18.8
2023-02-09T16:57:00.411Z,16.3
2023-02-09T16:58:00.450Z,13.7
2023-02-09T16:59:00.410Z,12.0
2023-02-09T17:00:05.323Z,10.3
2023-02-09T17:01:00.435Z,8.5
2023-02-09T17:02:00.444Z,7.4
2023-02-09T17:03:00.442Z,6.3
2023-02-09T17:04:00.466Z,5.5
2023-02-09T17:05:01.841Z,4.8
2023-02-09T17:06:00.674Z,4.1
2023-02-09T17:07:00.426Z,3.6
2023-02-09T17:08:00.455Z,3.1
2023-02-09T17:09:00.424Z,2.8
2023-02-09T17:10:20.459Z,2.5
2023-02-09T17:11:00.621Z,2.1
2023-02-09T17:12:00.506Z,1.9
2023-02-09T17:13:00.442Z,1.7
